createdAt,value
2023-02-06T00:01:31.300Z,19.85
2023-02-06T00:03:58.885Z,21.63
2023-02-06T00:06:26.419Z,20.65
2023-02-06T00:08:54.053Z,20.77
2023-02-06T00:11:21.784Z,20.48
2023-02-06T00:13:50.202Z,19.85
2023-02-06T00:16:23.266Z,19.95
2023-02-06T00:18:51.417Z,20.38
2023-02-06T00:21:21.745Z,18.60
2023-02-06T00:23:49.910Z,17.97
2023-02-06T00:26:17.715Z,17.48
2023-02-06T00:28:45.810Z,17.27
2023-02-06T00:31:13.749Z,17.67
2023-02-06T00:33:41.822Z,20.05
2023-02-06T00:36:09.808Z,20.85
2023-02-06T00:38:37.844Z,20.58
2023-02-06T00:41:05.629Z,22.95
2023-02-06T00:43:33.564Z,22.05
2023-02-06T00:46:01.090Z,22.45
2023-02-06T00:48:28.882Z,23.52
2023-02-06T00:50:57.649Z,24.95
2023-02-06T00:53:25.301Z,25.08
2023-02-06T00:55:52.858Z,24.88
2023-02-06T00:58:22.516Z,22.83
2023-02-06T01:00:50.072Z,25.17
2023-02-06T01:03:18.037Z,25.10
2023-02-06T01:05:45.618Z,25.08
2023-02-06T01:08:13.247Z,24.67
2023-02-06T01:10:42.170Z,24.45
2023-02-06T01:13:09.729Z,24.48
2023-02-06T01:15:37.860Z,23.52
2023-02-06T01:18:05.804Z,21.38
2023-02-06T01:20:33.565Z,23.42
2023-02-06T01:23:01.145Z,23.60
2023-02-06T01:25:29.258Z,23.27
2023-02-06T01:27:56.943Z,22.17
2023-02-06T01:30:24.641Z,21.08
2023-02-06T01:32:52.217Z,21.02
2023-02-06T01:35:19.807Z,20.75
2023-02-06T01:37:47.507Z,19.92
2023-02-06T01:40:16.370Z,18.52
2023-02-06T01:42:43.999Z,18.92
2023-02-06T01:45:26.938Z,19.00
2023-02-06T01:47:59.691Z,18.85
2023-02-06T01:50:28.394Z,18.95
2023-02-06T01:52:56.020Z,19.48
2023-02-06T01:55:24.239Z,18.95
2023-02-06T01:57:52.439Z,19.52
2023-02-06T02:00:21.527Z,19.00
2023-02-06T02:02:49.935Z,19.55
2023-02-06T02:05:18.905Z,20.20
2023-02-06T02:08:02.029Z,19.05
2023-02-06T02:10:31.216Z,19.92
2023-02-06T02:12:58.786Z,19.50
2023-02-06T02:15:35.036Z,20.63
2023-02-06T02:18:06.970Z,19.52
2023-02-06T02:20:34.649Z,20.25
2023-02-06T02:23:06.039Z,21.17
2023-02-06T02:25:44.679Z,19.23
2023-02-06T02:28:15.374Z,19.55
2023-02-06T02:30:58.078Z,20.35
2023-02-06T02:33:38.097Z,20.95
2023-02-06T02:36:08.717Z,19.92
2023-02-06T02:38:39.898Z,20.95
2023-02-06T02:41:15.045Z,21.42
2023-02-06T02:43:51.986Z,20.50
2023-02-06T02:46:25.682Z,21.05
2023-02-06T02:48:54.912Z,22.73
2023-02-06T02:51:22.912Z,20.75
2023-02-06T02:53:50.644Z,21.30
2023-02-06T02:56:22.906Z,21.42
2023-02-06T02:58:54.223Z,22.05
2023-02-06T03:01:23.928Z,19.80
2023-02-06T03:03:53.098Z,19.88
2023-02-06T03:06:44.590Z,20.63
2023-02-06T03:09:31.429Z,21.05
2023-02-06T03:12:05.192Z,20.52
2023-02-06T03:14:35.115Z,20.10
2023-02-06T03:17:05.863Z,21.35
2023-02-06T03:19:36.060Z,19.70
2023-02-06T03:22:04.361Z,20.88
2023-02-06T03:24:34.062Z,20.40
2023-02-06T03:27:02.966Z,20.10
2023-02-06T03:29:32.994Z,20.63
2023-02-06T03:32:13.421Z,20.92
2023-02-06T03:34:45.690Z,20.67
2023-02-06T03:37:13.982Z,21.52
2023-02-06T03:39:42.012Z,21.85
2023-02-06T03:42:12.380Z,20.45
2023-02-06T03:44:42.811Z,22.67
2023-02-06T03:47:11.530Z,20.80
2023-02-06T03:49:40.559Z,22.73
2023-02-06T03:52:13.811Z,23.35
2023-02-06T03:54:44.961Z,22.83
2023-02-06T03:59:40.277Z,23.02
2023-02-06T04:02:08.022Z,22.75
2023-02-06T04:04:37.393Z,22.40
2023-02-06T04:07:09.562Z,22.52
2023-02-06T04:09:37.210Z,24.45
2023-02-06T04:12:04.860Z,24.45
2023-02-06T04:14:33.020Z,23.02
2023-02-06T04:17:01.104Z,23.35
2023-02-06T04:19:29.078Z,22.30
2023-02-06T04:21:56.983Z,23.15
2023-02-06T04:24:24.810Z,22.23
2023-02-06T04:26:52.518Z,23.30
2023-02-06T04:29:20.356Z,22.98
2023-02-06T04:31:48.043Z,23.52
2023-02-06T04:34:15.585Z,23.58
2023-02-06T04:36:43.156Z,23.38
2023-02-06T04:39:10.729Z,22.50
2023-02-06T04:41:38.290Z,21.80
2023-02-06T04:44:05.953Z,21.73
2023-02-06T04:46:33.473Z,20.38
2023-02-06T04:49:01.060Z,20.38
2023-02-06T04:51:28.604Z,19.00
2023-02-06T04:53:56.194Z,19.33
2023-02-06T04:56:25.535Z,19.45
2023-02-06T04:58:53.271Z,19.83
2023-02-06T05:01:20.975Z,18.90
2023-02-06T05:03:48.626Z,20.27
2023-02-06T05:06:16.994Z,19.65
2023-02-06T05:08:44.670Z,20.17
2023-02-06T05:11:12.855Z,19.38
2023-02-06T05:13:40.516Z,18.95
2023-02-06T05:16:09.565Z,21.08
2023-02-06T05:18:37.239Z,20.52
2023-02-06T05:21:05.354Z,21.25
2023-02-06T05:23:33.166Z,19.88
2023-02-06T05:26:01.286Z,19.08
2023-02-06T05:28:33.530Z,19.33
2023-02-06T05:31:01.705Z,19.30
2023-02-06T05:33:29.440Z,19.42
2023-02-06T05:36:04.567Z,18.95
2023-02-06T05:38:32.427Z,17.98
2023-02-06T05:41:00.013Z,16.83
2023-02-06T05:43:27.615Z,18.50
2023-02-06T05:45:57.015Z,17.10
2023-02-06T05:48:24.572Z,16.88
2023-02-06T05:50:52.282Z,17.42
2023-02-06T05:53:19.929Z,16.88
2023-02-06T05:55:47.458Z,18.73
2023-02-06T05:58:15.136Z,17.15
2023-02-06T06:00:42.745Z,17.40
2023-02-06T06:03:10.430Z,17.92
2023-02-06T06:05:38.174Z,15.98
2023-02-06T06:08:05.862Z,16.45
2023-02-06T06:10:33.410Z,16.83
2023-02-06T06:13:00.996Z,15.65
2023-02-06T06:15:28.677Z,28.92
2023-02-06T06:17:56.359Z,18.60
2023-02-06T06:20:24.179Z,17.88
2023-02-06T06:22:51.964Z,15.55
2023-02-06T06:25:19.592Z,15.27
2023-02-06T06:27:47.238Z,15.13
2023-02-06T06:30:14.969Z,16.20
2023-02-06T06:32:42.852Z,15.88
2023-02-06T06:35:10.633Z,15.05
2023-02-06T06:37:38.183Z,15.73
2023-02-06T06:40:06.162Z,14.75
2023-02-06T06:42:33.889Z,15.00
2023-02-06T06:45:01.479Z,15.73
2023-02-06T06:47:29.393Z,14.73
2023-02-06T06:49:57.039Z,15.88
2023-02-06T06:52:25.864Z,14.85
2023-02-06T06:54:53.857Z,14.80
2023-02-06T06:57:22.663Z,15.82
2023-02-06T06:59:50.571Z,17.00
2023-02-06T07:02:18.153Z,24.92
2023-02-06T07:04:45.847Z,21.13
2023-02-06T07:07:13.516Z,23.35
2023-02-06T07:09:41.213Z,16.45
2023-02-06T07:12:08.775Z,15.75
2023-02-06T07:14:36.503Z,15.10
2023-02-06T07:17:04.095Z,16.50
2023-02-06T07:19:31.743Z,16.92
2023-02-06T07:21:59.426Z,15.98
2023-02-06T07:24:27.124Z,16.90
2023-02-06T07:26:54.809Z,17.13
2023-02-06T07:29:25.225Z,16.27
2023-02-06T07:31:53.073Z,15.40
2023-02-06T07:34:20.661Z,15.25
2023-02-06T07:36:48.277Z,16.35
2023-02-06T07:39:15.836Z,16.30
2023-02-06T07:41:46.378Z,22.65
2023-02-06T07:44:14.437Z,15.77
2023-02-06T07:46:43.738Z,17.92
2023-02-06T07:49:15.065Z,17.25
2023-02-06T07:51:45.938Z,18.73
2023-02-06T07:54:13.758Z,16.50
2023-02-06T07:56:41.366Z,17.40
2023-02-06T07:59:09.051Z,16.75
2023-02-06T08:01:36.846Z,17.25
2023-02-06T08:04:04.586Z,18.35
2023-02-06T08:06:32.439Z,18.25
2023-02-06T08:09:00.208Z,18.13
2023-02-06T08:11:30.284Z,18.23
2023-02-06T08:13:58.413Z,31.58
2023-02-06T08:16:26.142Z,20.75
2023-02-06T08:18:53.875Z,18.92
2023-02-06T08:21:23.254Z,17.65
2023-02-06T08:23:54.904Z,17.20
2023-02-06T08:26:22.613Z,17.20
2023-02-06T08:28:51.097Z,17.42
2023-02-06T08:31:21.376Z,17.65
2023-02-06T08:33:49.609Z,17.27
2023-02-06T08:36:18.411Z,17.13
2023-02-06T08:38:45.957Z,16.95
2023-02-06T08:41:18.937Z,18.48
2023-02-06T08:43:50.585Z,16.83
2023-02-06T08:46:18.903Z,17.40
2023-02-06T08:48:46.648Z,18.23
2023-02-06T08:51:15.438Z,16.55
2023-02-06T08:53:43.209Z,18.80
2023-02-06T08:56:11.727Z,20.25
2023-02-06T08:58:39.674Z,17.70
2023-02-06T09:01:13.671Z,19.60
2023-02-06T09:03:41.915Z,17.92
2023-02-06T09:06:10.644Z,17.85
2023-02-06T09:08:38.876Z,18.40
2023-02-06T09:11:12.270Z,18.77
2023-02-06T09:13:40.099Z,17.02
2023-02-06T09:16:07.914Z,17.88
2023-02-06T09:18:36.190Z,15.68
2023-02-06T09:21:11.702Z,16.45
2023-02-06T09:23:39.789Z,17.35
2023-02-06T09:26:07.439Z,17.42
2023-02-06T09:28:35.274Z,16.88
2023-02-06T09:31:03.259Z,16.45
2023-02-06T09:33:31.043Z,15.75
2023-02-06T09:36:02.618Z,16.83
2023-02-06T09:38:31.729Z,16.38
2023-02-06T09:41:01.031Z,16.20
2023-02-06T09:43:30.477Z,16.15
2023-02-06T09:46:03.559Z,16.08
2023-02-06T09:48:33.234Z,15.95
2023-02-06T09:51:07.079Z,15.45
2023-02-06T09:53:53.402Z,16.55
2023-02-06T09:56:23.177Z,16.55
2023-02-06T09:59:00.860Z,15.57
2023-02-06T10:01:35.663Z,16.20
2023-02-06T10:04:22.297Z,14.65
2023-02-06T10:07:09.059Z,15.63
2023-02-06T10:09:45.843Z,13.48
2023-02-06T10:12:17.897Z,15.30
2023-02-06T10:14:49.092Z,13.80
2023-02-06T10:19:53.902Z,14.10
2023-02-06T10:22:28.639Z,13.10
2023-02-06T10:25:15.322Z,13.15
2023-02-06T10:27:44.186Z,11.98
2023-02-06T10:30:19.602Z,12.55
2023-02-06T10:33:09.718Z,11.55
2023-02-06T10:35:55.933Z,13.40
2023-02-06T10:38:42.630Z,12.05
2023-02-06T10:41:17.237Z,12.57
2023-02-06T10:43:54.782Z,12.07
2023-02-06T10:46:30.647Z,12.18
2023-02-06T10:49:03.347Z,10.77
2023-02-06T10:51:32.314Z,12.70
2023-02-06T10:54:12.462Z,12.13
2023-02-06T10:56:44.045Z,12.52
2023-02-06T10:59:18.737Z,10.80
2023-02-06T11:01:48.135Z,10.63
2023-02-06T11:04:15.963Z,10.40
2023-02-06T11:06:47.068Z,10.57
2023-02-06T11:09:16.745Z,11.70
2023-02-06T11:11:57.869Z,10.57
2023-02-06T11:16:53.559Z,11.02
2023-02-06T11:19:42.277Z,10.73
2023-02-06T11:22:15.849Z,11.55
2023-02-06T11:25:02.022Z,10.27
2023-02-06T11:27:30.072Z,9.95
2023-02-06T11:30:00.841Z,10.00
2023-02-06T11:32:30.505Z,9.85
2023-02-06T11:34:59.773Z,8.80
2023-02-06T11:37:32.445Z,8.82
2023-02-06T11:40:29.498Z,10.18
2023-02-06T11:43:17.831Z,10.43
2023-02-06T11:45:47.330Z,10.55
2023-02-06T11:48:33.878Z,9.38
2023-02-06T11:51:01.729Z,9.10
2023-02-06T11:53:29.363Z,9.23
2023-02-06T11:56:01.413Z,9.13
2023-02-06T11:58:29.880Z,9.45
2023-02-06T12:00:59.572Z,8.57
2023-02-06T12:03:32.241Z,10.00
2023-02-06T12:06:03.188Z,9.05
2023-02-06T12:08:39.993Z,9.65
2023-02-06T12:11:12.596Z,9.38
2023-02-06T12:13:43.177Z,10.43
2023-02-06T12:16:14.075Z,10.18
2023-02-06T12:18:44.105Z,10.90
2023-02-06T12:21:24.571Z,10.38
2023-02-06T12:23:56.993Z,10.90
2023-02-06T12:26:28.623Z,10.45
2023-02-06T12:29:09.938Z,10.70
2023-02-06T12:34:14.483Z,11.85
2023-02-06T12:36:53.281Z,12.02
2023-02-06T12:39:23.246Z,11.00
2023-02-06T12:42:13.876Z,11.32
2023-02-06T12:44:43.549Z,11.23
2023-02-06T12:47:14.225Z,11.00
2023-02-06T12:49:49.820Z,11.07
2023-02-06T12:52:30.866Z,10.52
2023-02-06T12:55:15.511Z,10.18
2023-02-06T12:57:43.134Z,11.18
2023-02-06T13:00:12.808Z,10.88
2023-02-06T13:02:59.578Z,11.98
2023-02-06T13:05:41.450Z,12.10
2023-02-06T13:08:10.549Z,11.73
2023-02-06T13:10:38.501Z,11.60
2023-02-06T13:13:06.308Z,10.63
2023-02-06T13:15:39.797Z,11.88
2023-02-06T13:18:37.222Z,10.80
2023-02-06T13:21:16.267Z,11.10
2023-02-06T13:23:51.389Z,10.23
2023-02-06T13:26:19.369Z,8.57
2023-02-06T13:28:56.916Z,9.20
2023-02-06T13:31:26.458Z,7.90
2023-02-06T13:33:56.019Z,8.70
2023-02-06T13:36:28.480Z,8.32
2023-02-06T13:38:57.604Z,8.68
2023-02-06T13:41:35.485Z,9.02
2023-02-06T13:44:12.592Z,8.63
2023-02-06T13:47:00.158Z,8.98
2023-02-06T13:49:46.833Z,9.45
2023-02-06T13:52:20.594Z,8.30
2023-02-06T13:55:06.411Z,8.00
2023-02-06T13:57:40.771Z,7.82
2023-02-06T14:00:14.612Z,8.02
2023-02-06T14:02:43.146Z,7.68
2023-02-06T14:05:14.079Z,7.00
2023-02-06T14:07:50.626Z,7.55
2023-02-06T14:10:37.580Z,8.13
2023-02-06T14:13:09.018Z,8.95
2023-02-06T14:15:41.840Z,8.80
2023-02-06T14:18:38.411Z,8.90
2023-02-06T14:21:24.934Z,9.35
2023-02-06T14:23:52.463Z,9.40
2023-02-06T14:26:29.894Z,9.07
2023-02-06T14:29:08.361Z,9.65
2023-02-06T14:32:04.852Z,7.32
2023-02-06T14:34:42.690Z,7.88
2023-02-06T14:37:20.419Z,7.75
2023-02-06T14:39:50.422Z,7.45
2023-02-06T14:42:24.688Z,6.53
2023-02-06T14:44:58.053Z,7.47
2023-02-06T14:47:28.146Z,6.22
2023-02-06T14:49:57.590Z,6.15
2023-02-06T14:52:26.998Z,6.50
2023-02-06T14:54:54.726Z,5.45
2023-02-06T14:57:25.674Z,6.07
2023-02-06T15:00:00.443Z,7.57
2023-02-06T15:02:32.975Z,6.97
2023-02-06T15:05:02.203Z,6.13
2023-02-06T15:07:29.954Z,6.32
2023-02-06T15:10:03.081Z,6.15
2023-02-06T15:12:32.087Z,6.00
2023-02-06T15:15:02.852Z,6.05
2023-02-06T15:17:31.611Z,5.90
2023-02-06T15:20:15.058Z,7.38
2023-02-06T15:22:42.848Z,6.25
2023-02-06T15:25:29.116Z,6.03
2023-02-06T15:27:59.730Z,7.07
2023-02-06T15:30:27.483Z,5.88
2023-02-06T15:32:56.244Z,5.95
2023-02-06T15:35:29.613Z,6.20
2023-02-06T15:37:57.539Z,6.60
2023-02-06T15:40:28.266Z,7.13
2023-02-06T15:42:56.375Z,6.35
2023-02-06T15:45:26.158Z,6.18
2023-02-06T15:47:55.068Z,6.25
2023-02-06T15:50:27.969Z,6.30
2023-02-06T15:52:56.235Z,6.07
2023-02-06T15:55:33.577Z,6.40
2023-02-06T15:58:02.996Z,6.20
2023-02-06T16:00:33.507Z,7.20
2023-02-06T16:03:03.308Z,6.05
2023-02-06T16:05:32.683Z,6.55
2023-02-06T16:08:00.735Z,6.85
2023-02-06T16:10:31.143Z,6.05
2023-02-06T16:13:00.259Z,4.90
2023-02-06T16:15:31.267Z,6.82
2023-02-06T16:18:02.852Z,6.28
2023-02-06T16:20:32.255Z,6.43
2023-02-06T16:23:18.903Z,6.05
2023-02-06T16:25:50.779Z,6.15
2023-02-06T16:28:22.979Z,5.72
2023-02-06T16:30:55.217Z,5.95
2023-02-06T16:33:26.768Z,5.10
2023-02-06T16:35:54.391Z,5.93
2023-02-06T16:38:22.000Z,5.75
2023-02-06T16:40:52.821Z,5.78
2023-02-06T16:43:20.431Z,5.85
2023-02-06T16:45:49.145Z,5.00
2023-02-06T16:48:18.149Z,5.78
2023-02-06T16:50:47.942Z,5.60
2023-02-06T16:53:23.527Z,5.75
2023-02-06T16:55:51.419Z,5.50
2023-02-06T16:58:23.798Z,6.20
2023-02-06T17:00:52.274Z,6.20
2023-02-06T17:03:20.292Z,6.18
2023-02-06T17:05:52.153Z,6.85
2023-02-06T17:08:25.133Z,7.20
2023-02-06T17:10:53.071Z,8.02
2023-02-06T17:13:22.836Z,6.88
2023-02-06T17:15:53.271Z,7.65
2023-02-06T17:18:22.096Z,7.55
2023-02-06T17:20:56.294Z,7.40
2023-02-06T17:23:24.268Z,7.78
2023-02-06T17:25:52.187Z,6.65
2023-02-06T17:28:20.731Z,8.05
2023-02-06T17:30:50.763Z,7.57
2023-02-06T17:33:18.744Z,6.82
2023-02-06T17:35:47.340Z,7.35
2023-02-06T17:38:15.176Z,7.25
2023-02-06T17:40:44.396Z,8.77
2023-02-06T17:43:12.105Z,7.35
2023-02-06T17:45:39.966Z,8.00
2023-02-06T17:48:08.225Z,7.22
2023-02-06T17:50:37.570Z,7.97
2023-02-06T17:53:06.130Z,8.25
2023-02-06T17:55:35.387Z,7.55
2023-02-06T17:58:03.453Z,7.82
2023-02-06T18:00:31.195Z,7.65
2023-02-06T18:03:00.138Z,7.15
2023-02-06T18:05:28.333Z,8.40
2023-02-06T18:07:56.055Z,9.65
2023-02-06T18:10:25.035Z,7.28
2023-02-06T18:12:53.179Z,7.95
2023-02-06T18:15:20.970Z,7.53
2023-02-06T18:17:48.808Z,7.30
2023-02-06T18:20:16.924Z,7.78
2023-02-06T18:22:44.897Z,7.60
2023-02-06T18:25:13.983Z,6.82
2023-02-06T18:27:42.851Z,7.85
2023-02-06T18:30:10.956Z,7.80
2023-02-06T18:32:39.264Z,7.70
2023-02-06T18:35:08.026Z,7.75
2023-02-06T18:37:35.918Z,7.40
2023-02-06T18:40:03.807Z,7.75
2023-02-06T18:42:50.304Z,7.50
2023-02-06T18:45:19.061Z,8.13
2023-02-06T18:47:47.410Z,7.25
2023-02-06T18:50:15.849Z,7.38
2023-02-06T18:52:43.515Z,5.30
2023-02-06T18:55:11.288Z,5.45
2023-02-06T18:57:39.260Z,4.68
2023-02-06T19:00:07.966Z,4.68
2023-02-06T19:02:35.698Z,4.78
2023-02-06T19:05:03.907Z,4.32
2023-02-06T19:07:31.759Z,5.15
2023-02-06T19:10:00.799Z,4.22
2023-02-06T19:12:29.949Z,4.10
2023-02-06T19:14:58.738Z,4.10
2023-02-06T19:17:27.714Z,5.15
2023-02-06T19:19:56.118Z,3.70
2023-02-06T19:22:24.849Z,4.43
2023-02-06T19:24:53.555Z,4.85
2023-02-06T19:27:22.475Z,5.20
2023-02-06T19:29:50.135Z,4.07
2023-02-06T19:45:51.763Z,5.50
2023-02-06T19:48:23.533Z,4.55
2023-02-06T19:50:51.817Z,4.40
2023-02-06T19:53:22.148Z,4.30
2023-02-06T19:55:56.118Z,4.80
2023-02-06T19:58:25.792Z,4.95
2023-02-06T20:00:55.488Z,4.30
2023-02-06T20:03:25.713Z,5.22
2023-02-06T20:05:56.100Z,3.75
2023-02-06T20:08:28.507Z,4.85
2023-02-06T20:10:58.158Z,4.60
2023-02-06T20:13:26.033Z,4.28
2023-02-06T20:16:13.700Z,4.28
2023-02-06T20:18:44.433Z,4.97
2023-02-06T20:21:29.466Z,3.88
2023-02-06T20:23:58.950Z,3.50
2023-02-06T20:26:36.265Z,3.55
2023-02-06T20:29:06.098Z,4.10
2023-02-06T20:31:37.565Z,4.55
2023-02-06T20:34:05.825Z,3.28
2023-02-06T20:36:33.701Z,3.30
2023-02-06T20:39:02.616Z,3.08
2023-02-06T20:41:33.604Z,2.70
2023-02-06T20:44:02.876Z,3.00
2023-02-06T20:46:35.507Z,2.88
2023-02-06T20:49:04.722Z,3.33
2023-02-06T20:51:32.857Z,2.70
2023-02-06T20:54:03.173Z,2.88
2023-02-06T20:56:31.714Z,2.70
2023-02-06T20:59:02.794Z,2.97
2023-02-06T21:01:31.916Z,2.90
2023-02-06T21:04:03.575Z,2.60
2023-02-06T21:06:34.177Z,2.30
2023-02-06T21:09:05.576Z,2.83
2023-02-06T21:14:04.846Z,2.92
2023-02-06T21:16:33.134Z,3.10
2023-02-06T21:19:01.757Z,2.90
2023-02-06T21:21:29.768Z,2.97
2023-02-06T21:23:57.462Z,3.30
2023-02-06T21:26:25.764Z,2.88
2023-02-06T21:28:53.966Z,2.30
2023-02-06T21:31:42.406Z,2.88
2023-02-06T21:39:31.858Z,2.58
2023-02-06T21:42:06.074Z,2.92
2023-02-06T21:44:37.679Z,2.70
2023-02-06T21:47:11.358Z,2.30
2023-02-06T21:49:39.116Z,2.50
2023-02-06T21:52:14.842Z,2.28
2023-02-06T21:54:45.715Z,2.42
2023-02-06T21:57:13.448Z,2.42
2023-02-06T21:59:42.135Z,2.25
2023-02-06T22:02:11.232Z,2.30
2023-02-06T22:04:39.414Z,2.72
2023-02-06T22:07:09.325Z,2.35
2023-02-06T22:09:39.445Z,2.17
2023-02-06T22:12:07.741Z,2.95
2023-02-06T22:14:41.852Z,2.67
2023-02-06T22:17:12.382Z,2.30
2023-02-06T22:19:44.236Z,2.05
2023-02-06T22:22:15.081Z,2.50
2023-02-06T22:24:44.487Z,2.85
2023-02-06T22:27:12.371Z,2.13
2023-02-06T22:29:40.298Z,2.30
2023-02-06T22:32:07.967Z,2.20
2023-02-06T22:34:35.705Z,2.00
2023-02-06T22:37:06.030Z,2.15
2023-02-06T22:39:38.539Z,2.70
2023-02-06T22:42:06.704Z,2.90
2023-02-06T22:44:34.872Z,2.30
2023-02-06T22:47:02.743Z,2.05
2023-02-06T22:49:30.566Z,2.25
2023-02-06T22:51:58.950Z,2.30
2023-02-06T22:54:26.785Z,2.20
2023-02-06T22:56:54.495Z,2.40
2023-02-06T22:59:23.752Z,2.30
2023-02-06T23:01:51.611Z,2.28
2023-02-06T23:04:20.864Z,2.60
2023-02-06T23:06:49.413Z,2.40
2023-02-06T23:09:22.002Z,2.20
2023-02-06T23:11:50.486Z,2.50
2023-02-06T23:14:18.680Z,2.60
2023-02-06T23:16:46.597Z,2.78
2023-02-06T23:19:14.719Z,2.42
2023-02-06T23:21:43.253Z,3.33
2023-02-06T23:24:11.154Z,2.47
2023-02-06T23:26:39.122Z,2.42
2023-02-06T23:29:08.043Z,2.70
2023-02-06T23:31:35.844Z,2.42
2023-02-06T23:34:03.882Z,2.35
2023-02-06T23:36:31.435Z,3.10
2023-02-06T23:39:01.695Z,2.70
2023-02-06T23:41:29.723Z,2.73
2023-02-06T23:43:58.881Z,2.70
2023-02-06T23:46:28.156Z,2.67
2023-02-06T23:48:56.691Z,3.33
2023-02-06T23:51:24.999Z,2.90
2023-02-06T23:53:53.064Z,2.50
2023-02-06T23:56:25.431Z,2.60
2023-02-06T23:58:54.113Z,2.55
